createdAt,value
2023-04-19T00:00:34.885Z,429.00
2023-04-19T00:01:34.903Z,420.00
2023-04-19T00:02:35.028Z,423.00
2023-04-19T00:03:35.210Z,422.00
2023-04-19T00:04:35.056Z,422.00
2023-04-19T00:05:34.970Z,424.00
2023-04-19T00:06:34.990Z,423.00
2023-04-19T00:07:35.006Z,423.00
2023-04-19T00:08:35.057Z,421.00
2023-04-19T00:09:35.053Z,421.00
2023-04-19T00:10:35.055Z,424.00
2023-04-19T00:11:35.073Z,425.00
2023-04-19T00:12:35.105Z,424.00
2023-04-19T00:13:35.107Z,423.00
2023-04-19T00:14:35.116Z,427.00
2023-04-19T00:15:35.181Z,427.00
2023-04-19T00:16:35.188Z,431.00
2023-04-19T00:17:35.241Z,432.00
2023-04-19T00:18:35.186Z,430.00
2023-04-19T00:19:35.220Z,429.00
2023-04-19T00:20:35.221Z,428.00
2023-04-19T00:21:35.218Z,428.00
2023-04-19T00:22:35.253Z,431.00
2023-04-19T00:23:35.251Z,432.00
2023-04-19T00:24:35.278Z,435.00
2023-04-19T00:25:35.288Z,435.00
2023-04-19T00:26:35.291Z,434.00
2023-04-19T00:27:35.319Z,434.00
2023-04-19T00:28:35.336Z,434.00
2023-04-19T00:29:35.335Z,435.00
2023-04-19T00:30:35.383Z,434.00
2023-04-19T00:31:35.361Z,434.00
2023-04-19T00:32:35.410Z,433.00
2023-04-19T00:33:35.391Z,433.00
2023-04-19T00:34:35.407Z,433.00
2023-04-19T00:35:35.417Z,435.00
2023-04-19T00:36:35.441Z,434.00
2023-04-19T00:37:35.449Z,433.00
2023-04-19T00:38:35.464Z,434.00
2023-04-19T00:39:35.490Z,434.00
2023-04-19T00:40:35.487Z,431.00
2023-04-19T00:41:35.500Z,429.00
2023-04-19T00:42:35.517Z,428.00
2023-04-19T00:43:35.549Z,428.00
2023-04-19T00:44:35.571Z,429.00
2023-04-19T00:45:35.563Z,431.00
2023-04-19T00:46:35.612Z,431.00
2023-04-19T00:47:35.636Z,428.00
2023-04-19T00:48:35.626Z,427.00
2023-04-19T00:49:35.642Z,425.00
2023-04-19T00:50:35.656Z,425.00
2023-04-19T00:51:35.671Z,427.00
2023-04-19T00:52:35.690Z,429.00
2023-04-19T00:53:35.694Z,427.00
2023-04-19T00:54:35.733Z,428.00
2023-04-19T00:55:35.742Z,429.00
2023-04-19T00:56:35.745Z,430.00
2023-04-19T00:57:35.760Z,429.00
2023-04-19T00:58:35.787Z,431.00
2023-04-19T00:59:35.810Z,433.00
2023-04-19T01:00:35.826Z,427.00
2023-04-19T01:01:35.866Z,425.00
2023-04-19T01:02:36.024Z,428.00
2023-04-19T01:03:36.136Z,427.00
2023-04-19T01:04:35.971Z,429.00
2023-04-19T01:05:35.906Z,427.00
2023-04-19T01:06:35.918Z,424.00
2023-04-19T01:07:35.925Z,427.00
2023-04-19T01:08:35.950Z,427.00
2023-04-19T01:09:35.948Z,425.00
2023-04-19T01:10:35.959Z,428.00
2023-04-19T01:11:35.976Z,429.00
2023-04-19T01:12:35.997Z,430.00
2023-04-19T01:13:36.003Z,429.00
2023-04-19T01:14:36.001Z,428.00
2023-04-19T01:15:36.070Z,432.00
2023-04-19T01:16:36.042Z,432.00
2023-04-19T01:17:36.084Z,433.00
2023-04-19T01:18:36.071Z,433.00
2023-04-19T01:19:36.062Z,434.00
2023-04-19T01:20:36.083Z,439.00
2023-04-19T01:21:36.096Z,437.00
2023-04-19T01:22:36.100Z,434.00
2023-04-19T01:23:36.126Z,433.00
2023-04-19T01:24:36.142Z,432.00
2023-04-19T01:25:36.124Z,432.00
2023-04-19T01:26:36.183Z,434.00
2023-04-19T01:27:36.184Z,434.00
2023-04-19T01:28:36.181Z,433.00
2023-04-19T01:29:36.186Z,434.00
2023-04-19T01:30:36.197Z,439.00
2023-04-19T01:31:36.225Z,440.00
2023-04-19T01:32:36.212Z,439.00
2023-04-19T01:33:36.212Z,435.00
2023-04-19T01:34:36.244Z,434.00
2023-04-19T01:35:36.232Z,432.00
2023-04-19T01:36:36.264Z,433.00
2023-04-19T01:37:36.274Z,432.00
2023-04-19T01:38:36.274Z,432.00
2023-04-19T01:39:36.289Z,430.00
2023-04-19T01:40:36.311Z,430.00
2023-04-19T01:41:36.323Z,429.00
2023-04-19T01:42:36.314Z,429.00
2023-04-19T01:43:36.341Z,431.00
2023-04-19T01:44:36.354Z,430.00
2023-04-19T01:45:36.372Z,429.00
2023-04-19T01:46:36.403Z,427.00
2023-04-19T01:47:36.438Z,426.00
2023-04-19T01:48:36.403Z,428.00
2023-04-19T01:49:36.411Z,428.00
2023-04-19T01:50:36.430Z,430.00
2023-04-19T01:51:36.426Z,428.00
2023-04-19T01:52:36.435Z,429.00
2023-04-19T01:53:36.468Z,429.00
2023-04-19T01:54:36.460Z,432.00
2023-04-19T01:55:36.487Z,435.00
2023-04-19T01:56:36.498Z,436.00
2023-04-19T01:57:36.517Z,436.00
2023-04-19T01:58:36.513Z,436.00
2023-04-19T01:59:36.554Z,436.00
2023-04-19T02:00:36.598Z,438.00
2023-04-19T02:01:36.567Z,437.00
2023-04-19T02:02:36.850Z,438.00
2023-04-19T02:03:36.747Z,437.00
2023-04-19T02:04:36.621Z,440.00
2023-04-19T02:05:36.634Z,439.00
2023-04-19T02:06:36.635Z,437.00
2023-04-19T02:07:36.659Z,437.00
2023-04-19T02:08:36.655Z,437.00
2023-04-19T02:09:36.673Z,436.00
2023-04-19T02:10:36.714Z,435.00
2023-04-19T02:11:36.725Z,435.00
2023-04-19T02:12:36.716Z,436.00
2023-04-19T02:13:36.734Z,436.00
2023-04-19T02:14:36.773Z,435.00
2023-04-19T02:15:36.774Z,436.00
2023-04-19T02:16:36.838Z,438.00
2023-04-19T02:17:36.856Z,439.00
2023-04-19T02:18:36.829Z,440.00
2023-04-19T02:19:36.823Z,438.00
2023-04-19T02:20:36.846Z,440.00
2023-04-19T02:21:36.859Z,438.00
2023-04-19T02:22:36.881Z,436.00
2023-04-19T02:23:36.906Z,435.00
2023-04-19T02:24:36.905Z,434.00
2023-04-19T02:25:36.945Z,433.00
2023-04-19T02:26:36.940Z,435.00
2023-04-19T02:27:36.997Z,436.00
2023-04-19T02:28:36.986Z,436.00
2023-04-19T02:29:37.019Z,432.00
2023-04-19T02:30:37.041Z,428.00
2023-04-19T02:31:37.086Z,427.00
2023-04-19T02:32:37.123Z,429.00
2023-04-19T02:33:37.081Z,430.00
2023-04-19T02:34:37.086Z,430.00
2023-04-19T02:35:37.100Z,429.00
2023-04-19T02:36:37.135Z,430.00
2023-04-19T02:37:37.149Z,430.00
2023-04-19T02:38:37.172Z,429.00
2023-04-19T02:39:37.186Z,429.00
2023-04-19T02:40:37.193Z,432.00
2023-04-19T02:41:37.220Z,431.00
2023-04-19T02:42:37.224Z,431.00
2023-04-19T02:43:37.250Z,429.00
2023-04-19T02:44:37.252Z,428.00
2023-04-19T02:45:37.367Z,427.00
2023-04-19T02:46:37.388Z,428.00
2023-04-19T02:47:37.326Z,430.00
2023-04-19T02:48:37.358Z,429.00
2023-04-19T02:49:37.351Z,430.00
2023-04-19T02:50:37.362Z,434.00
2023-04-19T02:51:37.372Z,435.00
2023-04-19T02:52:37.390Z,433.00
2023-04-19T02:53:37.392Z,434.00
2023-04-19T02:54:37.428Z,431.00
2023-04-19T02:55:37.436Z,431.00
2023-04-19T02:56:37.447Z,430.00
2023-04-19T02:57:37.457Z,430.00
2023-04-19T02:58:37.479Z,430.00
2023-04-19T02:59:37.479Z,431.00
2023-04-19T03:00:37.512Z,431.00
2023-04-19T03:01:37.648Z,430.00
2023-04-19T03:02:37.627Z,430.00
2023-04-19T03:03:37.619Z,430.00
2023-04-19T03:04:37.603Z,431.00
2023-04-19T03:05:37.565Z,433.00
2023-04-19T03:06:37.595Z,431.00
2023-04-19T03:07:37.617Z,432.00
2023-04-19T03:08:37.640Z,432.00
2023-04-19T03:09:37.652Z,434.00
2023-04-19T03:10:37.652Z,436.00
2023-04-19T03:11:37.655Z,434.00
2023-04-19T03:12:37.690Z,432.00
2023-04-19T03:13:37.682Z,431.00
2023-04-19T03:14:37.717Z,430.00
2023-04-19T03:15:37.744Z,433.00
2023-04-19T03:16:37.720Z,433.00
2023-04-19T03:17:37.877Z,435.00
2023-04-19T03:18:37.748Z,437.00
2023-04-19T03:19:37.780Z,438.00
2023-04-19T03:20:37.771Z,438.00
2023-04-19T03:21:37.782Z,437.00
2023-04-19T03:22:37.838Z,436.00
2023-04-19T03:23:37.869Z,435.00
2023-04-19T03:24:38.315Z,434.00
2023-04-19T03:25:37.850Z,433.00
2023-04-19T03:26:37.852Z,432.00
2023-04-19T03:27:37.888Z,434.00
2023-04-19T03:28:37.911Z,431.00
2023-04-19T03:29:37.921Z,433.00
2023-04-19T03:30:37.956Z,434.00
2023-04-19T03:31:37.994Z,434.00
2023-04-19T03:32:38.038Z,434.00
2023-04-19T03:33:37.986Z,434.00
2023-04-19T03:34:38.038Z,433.00
2023-04-19T03:35:38.024Z,433.00
2023-04-19T03:36:38.042Z,432.00
2023-04-19T03:37:38.056Z,432.00
2023-04-19T03:38:38.092Z,432.00
2023-04-19T03:39:38.094Z,433.00
2023-04-19T03:40:38.103Z,433.00
2023-04-19T03:41:38.138Z,433.00
2023-04-19T03:42:38.141Z,431.00
2023-04-19T03:43:38.168Z,431.00
2023-04-19T03:44:38.184Z,431.00
2023-04-19T03:45:38.184Z,433.00
2023-04-19T03:46:38.272Z,433.00
2023-04-19T03:47:38.268Z,433.00
2023-04-19T03:48:38.242Z,435.00
2023-04-19T03:49:38.264Z,438.00
2023-04-19T03:50:38.290Z,440.00
2023-04-19T03:51:38.287Z,441.00
2023-04-19T03:52:38.319Z,442.00
2023-04-19T03:53:38.355Z,442.00
2023-04-19T03:54:38.361Z,442.00
2023-04-19T03:55:38.388Z,441.00
2023-04-19T03:56:38.380Z,441.00
2023-04-19T03:57:38.406Z,441.00
2023-04-19T03:58:38.761Z,442.00
2023-04-19T03:59:38.454Z,441.00
2023-04-19T04:00:38.511Z,441.00
2023-04-19T04:01:38.525Z,438.00
2023-04-19T04:02:38.668Z,438.00
2023-04-19T04:03:38.696Z,438.00
2023-04-19T04:04:38.776Z,436.00
2023-04-19T04:05:38.606Z,435.00
2023-04-19T04:06:38.600Z,434.00
2023-04-19T04:07:38.567Z,434.00
2023-04-19T04:08:38.596Z,434.00
2023-04-19T04:09:38.611Z,432.00
2023-04-19T04:10:38.621Z,432.00
2023-04-19T04:11:38.641Z,433.00
2023-04-19T04:12:38.672Z,431.00
2023-04-19T04:13:38.677Z,432.00
2023-04-19T04:14:38.701Z,433.00
2023-04-19T04:15:38.714Z,431.00
2023-04-19T04:16:38.752Z,430.00
2023-04-19T04:17:38.792Z,429.00
2023-04-19T04:18:38.755Z,429.00
2023-04-19T04:19:38.760Z,429.00
2023-04-19T04:20:38.787Z,432.00
2023-04-19T04:21:38.824Z,430.00
2023-04-19T04:22:38.822Z,431.00
2023-04-19T04:23:38.848Z,433.00
2023-04-19T04:24:38.858Z,435.00
2023-04-19T04:25:38.862Z,433.00
2023-04-19T04:26:38.878Z,434.00
2023-04-19T04:27:38.908Z,433.00
2023-04-19T04:28:38.933Z,433.00
2023-04-19T04:29:38.939Z,432.00
2023-04-19T04:30:38.973Z,431.00
2023-04-19T04:31:39.041Z,430.00
2023-04-19T04:32:39.038Z,429.00
2023-04-19T04:33:39.016Z,430.00
2023-04-19T04:34:39.050Z,433.00
2023-04-19T04:35:39.050Z,435.00
2023-04-19T04:36:39.066Z,435.00
2023-04-19T04:37:39.114Z,436.00
2023-04-19T04:38:39.101Z,438.00
2023-04-19T04:39:39.133Z,438.00
2023-04-19T04:40:39.151Z,437.00
2023-04-19T04:41:39.170Z,435.00
2023-04-19T04:42:39.188Z,433.00
2023-04-19T04:43:39.183Z,432.00
2023-04-19T04:44:39.253Z,433.00
2023-04-19T04:45:39.265Z,435.00
2023-04-19T04:46:39.263Z,437.00
2023-04-19T04:47:39.319Z,436.00
2023-04-19T04:48:39.283Z,436.00
2023-04-19T04:49:39.314Z,435.00
2023-04-19T04:50:39.322Z,432.00
2023-04-19T04:51:39.359Z,434.00
2023-04-19T04:52:39.372Z,436.00
2023-04-19T04:53:39.371Z,438.00
2023-04-19T04:54:39.400Z,438.00
2023-04-19T04:55:39.421Z,441.00
2023-04-19T04:56:39.488Z,442.00
2023-04-19T04:57:39.458Z,442.00
2023-04-19T04:58:39.468Z,444.00
2023-04-19T04:59:39.506Z,445.00
2023-04-19T05:00:39.501Z,448.00
2023-04-19T05:01:39.544Z,452.00
2023-04-19T05:02:39.608Z,453.00
2023-04-19T05:03:39.607Z,455.00
2023-04-19T05:04:39.606Z,458.00
2023-04-19T05:05:39.613Z,460.00
2023-04-19T05:06:39.617Z,463.00
2023-04-19T05:07:39.635Z,465.00
2023-04-19T05:08:39.653Z,468.00
2023-04-19T05:09:39.681Z,469.00
2023-04-19T05:10:39.697Z,467.00
2023-04-19T05:11:39.715Z,462.00
2023-04-19T05:12:39.770Z,463.00
2023-04-19T05:13:39.763Z,465.00
2023-04-19T05:14:39.766Z,466.00
2023-04-19T05:15:39.788Z,467.00
2023-04-19T05:16:39.863Z,468.00
2023-04-19T05:17:39.839Z,469.00
2023-04-19T05:18:39.830Z,469.00
2023-04-19T05:19:39.809Z,467.00
2023-04-19T05:20:39.842Z,467.00
2023-04-19T05:21:39.834Z,468.00
2023-04-19T05:22:39.816Z,471.00
2023-04-19T05:23:39.819Z,471.00
2023-04-19T05:24:41.821Z,469.00
2023-04-19T05:25:39.835Z,471.00
2023-04-19T05:26:39.835Z,472.00
2023-04-19T05:27:39.831Z,476.00
2023-04-19T05:28:40.063Z,487.00
2023-04-19T05:29:39.863Z,507.00
2023-04-19T05:30:39.856Z,548.00
2023-04-19T05:31:39.892Z,560.00
2023-04-19T05:32:39.959Z,558.00
2023-04-19T05:33:39.868Z,612.00
2023-04-19T05:34:39.902Z,612.00
2023-04-19T05:35:39.901Z,608.00
2023-04-19T05:36:39.904Z,608.00
2023-04-19T05:37:39.931Z,606.00
2023-04-19T05:38:39.966Z,608.00
2023-04-19T05:39:41.149Z,616.00
2023-04-19T05:40:39.925Z,629.00
2023-04-19T05:41:39.927Z,644.00
2023-04-19T05:42:39.905Z,668.00
2023-04-19T05:43:39.907Z,754.00
2023-04-19T05:44:39.914Z,776.00
2023-04-19T05:45:39.888Z,787.00
2023-04-19T05:46:39.936Z,814.00
2023-04-19T05:47:39.990Z,822.00
2023-04-19T05:48:39.862Z,825.00
2023-04-19T05:49:41.407Z,834.00
2023-04-19T05:50:39.889Z,866.00
2023-04-19T05:51:39.858Z,881.00
2023-04-19T05:52:39.856Z,888.00
2023-04-19T05:53:39.842Z,892.00
2023-04-19T05:54:39.839Z,894.00
2023-04-19T05:55:39.841Z,893.00
2023-04-19T05:56:39.842Z,896.00
2023-04-19T05:57:39.837Z,977.00
2023-04-19T05:58:39.849Z,970.00
2023-04-19T05:59:39.806Z,968.00
2023-04-19T06:00:39.795Z,969.00
2023-04-19T06:01:39.831Z,958.00
2023-04-19T06:02:39.887Z,963.00
2023-04-19T06:03:40.029Z,973.00
2023-04-19T06:04:39.979Z,948.00
2023-04-19T06:05:39.819Z,943.00
2023-04-19T06:06:39.804Z,955.00
2023-04-19T06:07:43.304Z,957.00
2023-04-19T06:08:40.773Z,979.00
2023-04-19T06:09:39.752Z,997.00
2023-04-19T06:10:51.920Z,997.00
2023-04-19T06:11:50.089Z,982.00
2023-04-19T06:12:40.741Z,987.00
2023-04-19T06:13:39.705Z,985.00
2023-04-19T06:14:39.704Z,985.00
2023-04-19T06:15:39.731Z,980.00
2023-04-19T06:16:39.740Z,971.00
2023-04-19T06:17:39.720Z,976.00
2023-04-19T06:18:39.693Z,978.00
2023-04-19T06:19:39.690Z,988.00
2023-04-19T06:20:39.672Z,983.00
2023-04-19T06:21:39.668Z,959.00
2023-04-19T06:22:39.673Z,959.00
2023-04-19T06:23:39.640Z,969.00
2023-04-19T06:24:40.088Z,980.00
2023-04-19T06:25:39.649Z,960.00
2023-04-19T06:26:39.634Z,967.00
2023-04-19T06:27:39.615Z,952.00
2023-04-19T06:28:39.628Z,1005.00
2023-04-19T06:29:39.633Z,997.00
2023-04-19T06:30:40.105Z,985.00
2023-04-19T06:31:39.669Z,945.00
2023-04-19T06:32:39.644Z,831.00
2023-04-19T06:33:39.592Z,675.00
2023-04-19T06:34:39.590Z,640.00
2023-04-19T06:35:39.593Z,660.00
2023-04-19T06:36:39.558Z,676.00
2023-04-19T06:37:39.557Z,808.00
2023-04-19T06:38:39.577Z,839.00
2023-04-19T06:39:39.541Z,856.00
2023-04-19T06:40:39.529Z,857.00
2023-04-19T06:41:39.554Z,869.00
2023-04-19T06:42:39.532Z,873.00
2023-04-19T06:43:39.513Z,882.00
2023-04-19T06:44:39.582Z,897.00
2023-04-19T06:45:39.621Z,910.00
2023-04-19T06:46:39.495Z,902.00
2023-04-19T06:47:39.537Z,910.00
2023-04-19T06:48:39.472Z,887.00
2023-04-19T06:49:39.468Z,895.00
2023-04-19T06:50:39.460Z,928.00
2023-04-19T06:51:39.462Z,924.00
2023-04-19T06:52:39.449Z,911.00
2023-04-19T06:53:39.446Z,928.00
2023-04-19T06:54:39.449Z,944.00
2023-04-19T06:55:39.590Z,942.00
2023-04-19T06:56:39.690Z,944.00
2023-04-19T06:57:39.432Z,953.00
2023-04-19T06:58:39.411Z,951.00
2023-04-19T06:59:39.603Z,953.00
2023-04-19T07:00:39.410Z,945.00
2023-04-19T07:01:39.449Z,942.00
2023-04-19T07:02:39.773Z,943.00
2023-04-19T07:03:39.502Z,956.00
2023-04-19T07:04:39.519Z,958.00
2023-04-19T07:05:39.615Z,962.00
2023-04-19T07:06:39.386Z,972.00
2023-04-19T07:07:39.356Z,962.00
2023-04-19T07:08:49.294Z,966.00
2023-04-19T07:09:40.364Z,978.00
2023-04-19T07:10:39.357Z,938.00
2023-04-19T07:11:39.348Z,943.00
2023-04-19T07:12:39.337Z,945.00
2023-04-19T07:13:39.316Z,945.00
2023-04-19T07:14:39.377Z,959.00
2023-04-19T07:15:39.629Z,968.00
2023-04-19T07:16:39.309Z,969.00
2023-04-19T07:17:39.324Z,968.00
2023-04-19T07:18:39.301Z,972.00
2023-04-19T07:19:39.279Z,965.00
2023-04-19T07:20:39.609Z,968.00
2023-04-19T07:21:39.447Z,975.00
2023-04-19T07:22:39.260Z,972.00
2023-04-19T07:23:39.284Z,979.00
2023-04-19T07:24:39.255Z,1010.00
2023-04-19T07:25:39.595Z,1015.00
2023-04-19T07:26:39.251Z,952.00
2023-04-19T07:27:39.268Z,957.00
2023-04-19T07:28:39.231Z,909.00
2023-04-19T07:29:39.598Z,909.00
2023-04-19T07:30:39.212Z,727.00
2023-04-19T07:31:39.266Z,629.00
2023-04-19T07:32:39.356Z,473.00
2023-04-19T07:33:39.199Z,499.00
2023-04-19T07:34:39.212Z,485.00
2023-04-19T07:35:39.239Z,482.00
2023-04-19T07:36:39.273Z,486.00
2023-04-19T07:37:39.323Z,504.00
2023-04-19T07:38:39.319Z,604.00
2023-04-19T07:39:39.353Z,639.00
2023-04-19T07:40:39.403Z,670.00
2023-04-19T07:41:39.410Z,673.00
2023-04-19T07:42:39.421Z,720.00
2023-04-19T07:43:41.091Z,740.00
2023-04-19T07:44:39.639Z,756.00
2023-04-19T07:45:39.520Z,775.00
2023-04-19T07:46:39.594Z,795.00
2023-04-19T07:47:39.550Z,807.00
2023-04-19T07:48:39.612Z,824.00
2023-04-19T07:49:39.647Z,836.00
2023-04-19T07:50:39.690Z,848.00
2023-04-19T07:51:39.700Z,852.00
2023-04-19T07:52:39.729Z,851.00
2023-04-19T07:53:39.715Z,860.00
2023-04-19T07:54:40.108Z,863.00
2023-04-19T07:55:40.118Z,868.00
2023-04-19T07:56:39.816Z,888.00
2023-04-19T07:57:39.906Z,890.00
2023-04-19T07:58:39.929Z,894.00
2023-04-19T07:59:39.982Z,858.00
2023-04-19T08:00:40.070Z,880.00
2023-04-19T08:01:40.283Z,895.00
2023-04-19T08:02:40.226Z,907.00
2023-04-19T08:03:40.340Z,917.00
2023-04-19T08:04:40.382Z,924.00
2023-04-19T08:05:40.688Z,926.00
2023-04-19T08:06:40.237Z,927.00
2023-04-19T08:07:40.229Z,929.00
2023-04-19T08:08:40.244Z,932.00
2023-04-19T08:09:40.280Z,910.00
2023-04-19T08:10:40.606Z,912.00
2023-04-19T08:11:40.271Z,919.00
2023-04-19T08:12:45.285Z,927.00
2023-04-19T08:13:42.134Z,940.00
2023-04-19T08:14:51.512Z,951.00
2023-04-19T08:17:10.923Z,946.00
2023-04-19T08:17:42.311Z,867.00
2023-04-19T08:18:40.417Z,916.00
2023-04-19T08:19:40.615Z,939.00
2023-04-19T08:20:40.414Z,932.00
2023-04-19T08:21:41.612Z,924.00
2023-04-19T08:22:40.431Z,885.00
2023-04-19T08:23:47.977Z,873.00
2023-04-19T08:24:41.635Z,826.00
2023-04-19T08:25:40.643Z,813.00
2023-04-19T08:26:40.367Z,841.00
2023-04-19T08:27:40.389Z,855.00
2023-04-19T08:28:40.355Z,856.00
2023-04-19T08:29:40.355Z,860.00
2023-04-19T08:30:40.344Z,861.00
2023-04-19T08:31:40.394Z,857.00
2023-04-19T08:32:40.387Z,859.00
2023-04-19T08:33:40.334Z,861.00
2023-04-19T08:34:40.686Z,857.00
2023-04-19T08:35:40.310Z,853.00
2023-04-19T08:36:45.923Z,702.00
2023-04-19T08:37:41.300Z,663.00
2023-04-19T08:38:41.749Z,702.00
2023-04-19T08:39:40.902Z,771.00
2023-04-19T08:40:40.284Z,778.00
2023-04-19T08:41:40.301Z,787.00
2023-04-19T08:42:40.280Z,785.00
2023-04-19T08:43:41.655Z,778.00
2023-04-19T08:44:53.786Z,780.00
2023-04-19T08:45:41.309Z,782.00
2023-04-19T08:46:40.250Z,778.00
2023-04-19T08:48:40.325Z,764.00
2023-04-19T08:49:42.748Z,755.00
2023-04-19T08:50:48.726Z,751.00
2023-04-19T08:51:41.221Z,748.00
2023-04-19T08:52:51.984Z,738.00
2023-04-19T08:53:41.205Z,735.00
2023-04-19T08:54:40.644Z,727.00
2023-04-19T08:55:47.303Z,708.00
2023-04-19T08:56:41.197Z,704.00
2023-04-19T08:57:40.188Z,699.00
2023-04-19T08:58:54.911Z,695.00
2023-04-19T08:59:41.239Z,695.00
2023-04-19T09:00:40.170Z,692.00
2023-04-19T09:01:41.075Z,691.00
2023-04-19T09:02:40.342Z,690.00
2023-04-19T09:03:55.456Z,687.00
2023-04-19T09:04:41.321Z,683.00
2023-04-19T09:05:40.298Z,678.00
2023-04-19T09:06:40.382Z,675.00
2023-04-19T09:07:40.114Z,671.00
2023-04-19T09:08:40.114Z,667.00
2023-04-19T09:09:48.834Z,663.00
2023-04-19T09:10:41.099Z,659.00
2023-04-19T09:11:40.103Z,657.00
2023-04-19T09:12:40.075Z,657.00
2023-04-19T09:13:40.081Z,658.00
2023-04-19T09:14:41.419Z,659.00
2023-04-19T09:15:40.151Z,660.00
2023-04-19T09:16:40.091Z,658.00
2023-04-19T09:17:40.079Z,652.00
2023-04-19T09:18:48.788Z,648.00
2023-04-19T09:19:41.051Z,650.00
2023-04-19T09:20:40.170Z,651.00
2023-04-19T09:21:40.035Z,652.00
2023-04-19T09:22:40.054Z,651.00
2023-04-19T09:23:40.009Z,650.00
2023-04-19T09:26:05.721Z,649.00
2023-04-19T09:26:41.284Z,651.00
2023-04-19T09:27:39.991Z,652.00
2023-04-19T09:28:39.990Z,649.00
2023-04-19T09:29:40.080Z,648.00
2023-04-19T09:30:46.965Z,645.00
2023-04-19T09:31:50.936Z,657.00
2023-04-19T09:32:41.065Z,666.00
2023-04-19T09:33:40.030Z,717.00
2023-04-19T09:34:39.928Z,710.00
2023-04-19T09:35:40.161Z,704.00
2023-04-19T09:36:39.923Z,711.00
2023-04-19T09:38:01.748Z,708.00
2023-04-19T09:38:40.922Z,681.00
2023-04-19T09:39:39.906Z,663.00
2023-04-19T09:40:40.152Z,670.00
2023-04-19T09:41:41.436Z,679.00
2023-04-19T09:42:55.462Z,685.00
2023-04-19T09:45:40.092Z,714.00
2023-04-19T09:46:40.132Z,731.00
2023-04-19T09:47:40.138Z,747.00
2023-04-19T09:48:40.068Z,754.00
2023-04-19T09:49:48.400Z,757.00
2023-04-19T09:50:53.649Z,760.00
2023-04-19T09:51:41.087Z,769.00
2023-04-19T09:52:40.036Z,774.00
2023-04-19T09:53:40.050Z,779.00
2023-04-19T09:54:40.044Z,782.00
2023-04-19T09:55:52.385Z,790.00
2023-04-19T09:56:41.170Z,798.00
2023-04-19T09:57:40.020Z,801.00
2023-04-19T09:58:49.953Z,802.00
2023-04-19T09:59:40.988Z,806.00
2023-04-19T10:00:47.914Z,816.00
2023-04-19T10:01:41.021Z,821.00
2023-04-19T10:02:40.029Z,829.00
2023-04-19T10:03:40.130Z,836.00
2023-04-19T10:05:40.202Z,774.00
2023-04-19T10:06:52.164Z,788.00
2023-04-19T10:07:40.983Z,807.00
2023-04-19T10:08:39.938Z,817.00
2023-04-19T10:09:49.628Z,825.00
2023-04-19T10:10:42.328Z,824.00
2023-04-19T10:11:40.159Z,824.00
2023-04-19T10:13:40.912Z,830.00
2023-04-19T10:14:40.002Z,832.00
2023-04-19T10:15:50.582Z,834.00
2023-04-19T10:16:41.202Z,832.00
2023-04-19T10:17:39.912Z,833.00
2023-04-19T10:18:39.869Z,715.00
2023-04-19T10:19:39.887Z,786.00
2023-04-19T10:20:39.866Z,740.00
2023-04-19T10:21:40.174Z,744.00
2023-04-19T10:22:39.847Z,756.00
2023-04-19T10:23:39.835Z,757.00
2023-04-19T10:24:39.833Z,656.00
2023-04-19T10:25:40.196Z,746.00
2023-04-19T10:26:39.862Z,757.00
2023-04-19T10:27:39.838Z,660.00
2023-04-19T10:28:39.812Z,675.00
2023-04-19T10:29:39.823Z,669.00
2023-04-19T10:30:39.811Z,628.00
2023-04-19T10:31:39.815Z,764.00
2023-04-19T10:32:39.815Z,687.00
2023-04-19T10:33:39.803Z,711.00
2023-04-19T10:34:39.809Z,725.00
2023-04-19T10:35:39.767Z,616.00
2023-04-19T10:36:40.182Z,621.00
2023-04-19T10:37:39.818Z,639.00
2023-04-19T10:38:39.828Z,645.00
2023-04-19T10:39:39.836Z,616.00
2023-04-19T10:40:39.959Z,620.00
2023-04-19T10:41:39.898Z,678.00
2023-04-19T10:42:39.902Z,693.00
2023-04-19T10:43:39.922Z,660.00
2023-04-19T10:44:39.971Z,680.00
2023-04-19T10:45:40.221Z,686.00
2023-04-19T10:46:40.100Z,677.00
2023-04-19T10:47:40.037Z,639.00
2023-04-19T10:48:40.013Z,648.00
2023-04-19T10:49:39.993Z,653.00
2023-04-19T10:50:40.086Z,696.00
2023-04-19T10:51:40.050Z,667.00
2023-04-19T10:52:40.060Z,612.00
2023-04-19T10:53:40.056Z,643.00
2023-04-19T10:54:40.077Z,624.00
2023-04-19T10:55:40.111Z,612.00
2023-04-19T10:56:40.121Z,603.00
2023-04-19T10:57:40.153Z,605.00
2023-04-19T10:58:40.177Z,613.00
2023-04-19T10:59:40.186Z,610.00
2023-04-19T11:00:40.218Z,699.00
2023-04-19T11:01:40.680Z,663.00
2023-04-19T11:02:40.353Z,666.00
2023-04-19T11:03:40.419Z,696.00
2023-04-19T11:04:40.444Z,687.00
2023-04-19T11:05:40.290Z,663.00
2023-04-19T11:06:40.284Z,663.00
2023-04-19T11:07:40.302Z,685.00
2023-04-19T11:08:40.308Z,681.00
2023-04-19T11:09:40.330Z,652.00
2023-04-19T11:10:40.459Z,621.00
2023-04-19T11:11:40.691Z,660.00
2023-04-19T11:12:40.419Z,649.00
2023-04-19T11:13:40.465Z,580.00
2023-04-19T11:14:40.529Z,562.00
2023-04-19T11:15:40.579Z,561.00
2023-04-19T11:16:46.199Z,522.00
2023-04-19T11:17:41.561Z,491.00
2023-04-19T11:18:40.538Z,481.00
2023-04-19T11:19:40.525Z,475.00
2023-04-19T11:20:40.583Z,472.00
2023-04-19T11:21:40.532Z,471.00
2023-04-19T11:22:40.520Z,460.00
2023-04-19T11:23:40.513Z,454.00
2023-04-19T11:24:40.496Z,447.00
2023-04-19T11:25:40.485Z,442.00
2023-04-19T11:26:40.482Z,438.00
2023-04-19T11:27:40.502Z,436.00
2023-04-19T11:28:40.467Z,425.00
2023-04-19T11:29:40.477Z,430.00
2023-04-19T11:30:40.479Z,430.00
2023-04-19T11:31:40.580Z,426.00
2023-04-19T11:32:40.612Z,424.00
2023-04-19T11:33:40.645Z,424.00
2023-04-19T11:34:40.648Z,423.00
2023-04-19T11:35:40.682Z,419.00
2023-04-19T11:36:40.762Z,419.00
2023-04-19T11:37:40.802Z,417.00
2023-04-19T11:38:40.879Z,418.00
2023-04-19T11:39:40.907Z,417.00
2023-04-19T11:40:40.970Z,415.00
2023-04-19T11:41:41.033Z,418.00
2023-04-19T11:42:41.099Z,417.00
2023-04-19T11:43:41.167Z,421.00
2023-04-19T11:44:41.189Z,420.00
2023-04-19T11:45:41.172Z,424.00
2023-04-19T11:46:41.265Z,430.00
2023-04-19T11:47:41.344Z,433.00
2023-04-19T11:48:41.333Z,437.00
2023-04-19T11:49:41.393Z,444.00
2023-04-19T11:50:41.526Z,452.00
2023-04-19T11:51:41.482Z,461.00
2023-04-19T11:52:41.461Z,468.00
2023-04-19T11:53:41.486Z,473.00
2023-04-19T11:54:41.520Z,477.00
2023-04-19T11:55:41.493Z,478.00
2023-04-19T11:56:41.521Z,478.00
2023-04-19T11:57:41.766Z,480.00
2023-04-19T11:58:41.663Z,483.00
2023-04-19T11:59:41.703Z,483.00
2023-04-19T12:00:41.755Z,482.00
2023-04-19T12:01:41.796Z,483.00
2023-04-19T12:02:41.927Z,481.00
2023-04-19T12:03:42.045Z,479.00
2023-04-19T12:04:42.119Z,480.00
2023-04-19T12:05:42.068Z,481.00
2023-04-19T12:06:42.217Z,484.00
2023-04-19T12:07:41.899Z,488.00
2023-04-19T12:08:41.924Z,493.00
2023-04-19T12:09:41.921Z,497.00
2023-04-19T12:10:41.908Z,497.00
2023-04-19T12:11:41.981Z,496.00
2023-04-19T12:12:41.909Z,494.00
2023-04-19T12:13:41.900Z,491.00
2023-04-19T12:14:41.934Z,494.00
2023-04-19T12:15:41.960Z,496.00
2023-04-19T12:16:41.976Z,496.00
2023-04-19T12:17:54.590Z,498.00
2023-04-19T12:18:42.945Z,499.00
2023-04-19T12:19:41.934Z,497.00
2023-04-19T12:20:41.941Z,496.00
2023-04-19T12:21:41.945Z,498.00
2023-04-19T12:22:41.917Z,498.00
2023-04-19T12:23:41.923Z,499.00
2023-04-19T12:24:41.895Z,498.00
2023-04-19T12:25:41.906Z,497.00
2023-04-19T12:26:41.968Z,497.00
2023-04-19T12:27:42.010Z,495.00
2023-04-19T12:28:42.090Z,491.00
2023-04-19T12:29:42.116Z,490.00
2023-04-19T12:30:42.166Z,490.00
2023-04-19T12:31:42.289Z,490.00
2023-04-19T12:32:42.305Z,491.00
2023-04-19T12:33:42.318Z,491.00
2023-04-19T12:34:42.384Z,492.00
2023-04-19T12:35:42.426Z,491.00